Jacksonville, Florida
Current Conditions -  °F | °C
As of 2:41 AM on Wednesday 26 Nov 2014 (Local Time) from KJAX Reporting Station
Haze Haze  
Wind Chill: 13°   Ceiling: 1400
Heat Index: 13°   Visibility: 2.5mi
Dew Point: 13°   Wind: 14mph
Humidity: 100%   Direction: 320°NW
Pressure: 29.89"   Gusts: NA
Location:  30.32°N, 81.66°W
Report Text: KJAX 260741Z 32012KT 2 1/2SM BR SCT007 OVC014 13/13 A2989 RMK AO2 RAE06 P0001 T01280128
Loading
Personal Weather Stations






























Interactive Weather Map New forecast layout! Learn more

10-Day Weather Forecast

Advertisements
Track Severe Weather on mobile